createdAt,value
2019-05-14T00:00:52.237Z,66.30
2019-05-14T00:03:22.026Z,67.50
2019-05-14T00:05:51.656Z,66.50
2019-05-14T00:08:22.135Z,66.70
2019-05-14T00:10:52.088Z,66.70
2019-05-14T00:13:21.679Z,66.40
2019-05-14T00:15:52.149Z,66.30
2019-05-14T00:18:22.453Z,67.20
2019-05-14T00:20:51.609Z,65.60
2019-05-14T00:23:21.470Z,67.00
2019-05-14T00:25:52.253Z,67.40
2019-05-14T00:28:21.391Z,67.00
2019-05-14T00:30:52.317Z,66.40
2019-05-14T00:33:22.497Z,67.20
2019-05-14T00:35:51.759Z,66.10
2019-05-14T00:38:22.548Z,65.20
2019-05-14T00:40:51.616Z,66.20
2019-05-14T00:43:21.799Z,66.30
2019-05-14T00:45:51.186Z,66.50
2019-05-14T00:48:22.172Z,67.10
2019-05-14T00:50:51.599Z,65.60
2019-05-14T00:53:21.490Z,66.60
2019-05-14T00:55:51.677Z,65.40
2019-05-14T00:58:22.685Z,65.50
2019-05-14T01:00:52.477Z,65.90
2019-05-14T01:03:21.883Z,66.10
2019-05-14T01:05:52.214Z,65.10
2019-05-14T01:08:21.568Z,65.30
2019-05-14T01:10:51.259Z,66.40
2019-05-14T01:13:21.912Z,66.70
2019-05-14T01:15:52.091Z,66.00
2019-05-14T01:18:21.885Z,66.50
2019-05-14T01:20:51.901Z,65.80
2019-05-14T01:23:21.654Z,65.90
2019-05-14T01:25:51.611Z,66.60
2019-05-14T01:28:21.658Z,65.20
2019-05-14T01:30:51.789Z,65.50
2019-05-14T01:33:21.354Z,67.30
2019-05-14T01:35:51.476Z,66.80
2019-05-14T01:38:22.213Z,67.10
2019-05-14T01:40:52.500Z,67.40
2019-05-14T01:43:22.037Z,68.00
2019-05-14T01:45:52.482Z,66.80
2019-05-14T01:48:21.937Z,67.00
2019-05-14T01:50:52.111Z,67.80
2019-05-14T01:53:21.978Z,67.10
2019-05-14T01:55:52.042Z,67.50
2019-05-14T01:58:22.098Z,68.30
2019-05-14T02:00:52.336Z,68.20
2019-05-14T02:03:24.697Z,68.40
2019-05-14T02:05:56.333Z,67.00
2019-05-14T02:08:25.493Z,67.90
2019-05-14T02:10:57.014Z,68.90
2019-05-14T02:13:25.826Z,68.10
2019-05-14T02:15:54.640Z,68.30
2019-05-14T02:18:23.508Z,68.50
2019-05-14T02:20:52.388Z,68.60
2019-05-14T02:23:22.708Z,70.00
2019-05-14T02:25:52.034Z,69.90
2019-05-14T02:28:22.138Z,69.60
2019-05-14T02:30:57.655Z,69.60
2019-05-14T02:33:21.873Z,69.20
2019-05-14T02:35:50.732Z,69.80
2019-05-14T02:38:19.718Z,70.00
2019-05-14T02:40:49.506Z,69.00
2019-05-14T02:43:20.070Z,69.00
2019-05-14T02:46:04.775Z,69.20
2019-05-14T02:48:20.305Z,69.60
2019-05-14T02:50:49.820Z,69.50
2019-05-14T02:53:19.748Z,70.30
2019-05-14T02:55:49.809Z,70.10
2019-05-14T02:58:20.802Z,70.60
2019-05-14T03:00:50.181Z,71.00
2019-05-14T03:03:19.419Z,70.80
2019-05-14T03:05:49.540Z,71.30
2019-05-14T03:08:20.128Z,71.10
2019-05-14T03:10:50.195Z,70.50
2019-05-14T03:13:20.335Z,71.60
2019-05-14T03:15:49.949Z,70.70
2019-05-14T03:18:20.048Z,71.90
2019-05-14T03:20:50.284Z,71.00
2019-05-14T03:23:22.761Z,70.90
2019-05-14T03:25:49.963Z,71.90
2019-05-14T03:28:19.872Z,71.50
2019-05-14T03:30:52.488Z,70.80
2019-05-14T03:33:22.060Z,70.10
2019-05-14T03:35:58.906Z,70.90
2019-05-14T03:38:20.990Z,71.20
2019-05-14T03:40:50.222Z,71.50
2019-05-14T03:43:19.906Z,72.10
2019-05-14T03:45:49.722Z,72.30
2019-05-14T03:48:19.359Z,73.20
2019-05-14T03:50:49.511Z,74.90
2019-05-14T03:53:19.240Z,73.20
2019-05-14T03:55:50.352Z,72.30
2019-05-14T03:58:21.060Z,72.60
2019-05-14T04:01:00.465Z,72.90
2019-05-14T04:03:30.268Z,71.20
2019-05-14T04:05:59.845Z,72.30
2019-05-14T04:08:29.682Z,72.20
2019-05-14T04:10:59.351Z,72.20
2019-05-14T04:13:30.252Z,72.80
2019-05-14T04:16:00.245Z,73.70
2019-05-14T04:18:29.663Z,73.80
2019-05-14T04:20:59.499Z,74.90
2019-05-14T04:23:29.273Z,73.80
2019-05-14T04:26:00.490Z,74.20
2019-05-14T04:28:29.858Z,74.70
2019-05-14T04:30:59.853Z,73.00
2019-05-14T04:33:30.560Z,74.80
2019-05-14T04:36:00.328Z,74.50
2019-05-14T04:38:30.181Z,74.90
2019-05-14T04:41:01.063Z,76.50
2019-05-14T04:43:29.977Z,74.00
2019-05-14T04:45:59.389Z,75.10
2019-05-14T04:48:36.387Z,76.10
2019-05-14T04:51:00.375Z,73.80
2019-05-14T04:53:31.341Z,76.30
2019-05-14T04:56:00.432Z,78.10
2019-05-14T04:58:29.904Z,76.90
2019-05-14T05:01:00.690Z,77.30
2019-05-14T05:03:31.480Z,78.40
2019-05-14T05:06:00.142Z,78.20
2019-05-14T05:08:30.663Z,77.10
2019-05-14T05:11:00.302Z,77.10
2019-05-14T05:13:29.620Z,76.30
2019-05-14T05:15:59.567Z,78.10
2019-05-14T05:18:29.714Z,78.00
2019-05-14T05:20:58.857Z,77.90
2019-05-14T05:23:28.405Z,76.00
2019-05-14T05:25:58.537Z,75.80
2019-05-14T05:28:28.294Z,73.90
2019-05-14T05:30:58.522Z,75.20
2019-05-14T05:33:29.420Z,73.70
2019-05-14T05:35:59.373Z,72.30
2019-05-14T05:38:29.346Z,72.60
2019-05-14T05:41:00.328Z,73.30
2019-05-14T05:43:29.310Z,73.10
2019-05-14T05:45:59.218Z,73.50
2019-05-14T05:48:28.680Z,74.50
2019-05-14T05:50:59.114Z,72.80
2019-05-14T05:53:28.901Z,73.00
2019-05-14T05:55:59.328Z,72.60
2019-05-14T05:58:29.913Z,73.30
2019-05-14T06:00:59.463Z,74.20
2019-05-14T06:03:30.060Z,73.30
2019-05-14T06:05:59.609Z,72.90
2019-05-14T06:08:28.551Z,71.00
2019-05-14T06:10:59.174Z,70.90
2019-05-14T06:13:28.741Z,70.70
2019-05-14T06:15:59.207Z,70.30
2019-05-14T06:18:28.748Z,69.30
2019-05-14T06:20:58.522Z,69.30
2019-05-14T06:23:28.496Z,68.30
2019-05-14T06:25:59.835Z,68.30
2019-05-14T06:28:33.123Z,68.30
2019-05-14T06:30:59.206Z,67.50
2019-05-14T06:33:28.774Z,69.50
2019-05-14T06:35:59.111Z,68.20
2019-05-14T06:38:29.444Z,67.80
2019-05-14T06:40:59.359Z,67.30
2019-05-14T06:43:29.023Z,66.50
2019-05-14T06:45:58.494Z,66.60
2019-05-14T06:48:33.697Z,65.20
2019-05-14T06:50:58.502Z,65.10
2019-05-14T06:53:29.073Z,64.00
2019-05-14T06:55:58.773Z,65.60
2019-05-14T06:58:29.818Z,64.50
2019-05-14T07:00:59.210Z,63.80
2019-05-14T07:03:28.371Z,64.50
2019-05-14T07:05:59.536Z,64.60
2019-05-14T07:08:28.669Z,64.40
2019-05-14T07:10:59.269Z,62.70
2019-05-14T07:13:29.218Z,61.40
2019-05-14T07:15:58.649Z,60.90
2019-05-14T07:18:30.305Z,62.60
2019-05-14T07:20:58.799Z,60.70
2019-05-14T07:23:28.969Z,61.90
2019-05-14T07:25:58.933Z,61.20
2019-05-14T07:28:28.836Z,59.50
2019-05-14T07:30:59.304Z,60.80
2019-05-14T07:33:29.326Z,60.20
2019-05-14T07:35:59.435Z,59.00
2019-05-14T07:38:28.630Z,58.80
2019-05-14T07:40:58.591Z,57.60
2019-05-14T07:43:28.628Z,59.10
2019-05-14T07:45:58.405Z,58.00
2019-05-14T07:48:28.822Z,55.40
2019-05-14T07:51:00.047Z,56.20
2019-05-14T07:53:38.657Z,56.80
2019-05-14T07:55:59.315Z,56.70
2019-05-14T07:58:28.429Z,55.30
2019-05-14T08:00:58.536Z,54.50
2019-05-14T08:03:28.568Z,56.20
2019-05-14T08:05:58.874Z,56.20
2019-05-14T08:08:29.295Z,55.80
2019-05-14T08:10:59.247Z,55.20
2019-05-14T08:13:28.610Z,53.50
2019-05-14T08:15:58.333Z,52.10
2019-05-14T08:18:28.993Z,51.60
2019-05-14T08:20:59.287Z,50.00
2019-05-14T08:23:28.574Z,49.50
2019-05-14T08:25:58.682Z,50.00
2019-05-14T08:28:29.021Z,49.50
2019-05-14T08:30:58.521Z,49.00
2019-05-14T08:33:28.990Z,48.80
2019-05-14T08:35:58.360Z,49.60
2019-05-14T08:38:28.434Z,48.60
2019-05-14T08:40:58.910Z,49.30
2019-05-14T08:43:29.155Z,47.70
2019-05-14T08:45:58.918Z,48.30
2019-05-14T08:48:29.579Z,48.50
2019-05-14T08:50:58.841Z,48.70
2019-05-14T08:53:28.781Z,47.80
2019-05-14T08:56:00.663Z,48.50
2019-05-14T08:58:30.200Z,46.20
2019-05-14T09:00:59.394Z,44.50
2019-05-14T09:03:28.923Z,45.10
2019-05-14T09:06:00.673Z,44.60
2019-05-14T09:08:28.826Z,44.30
2019-05-14T09:10:58.968Z,45.00
2019-05-14T09:13:28.924Z,45.00
2019-05-14T09:15:58.467Z,44.10
2019-05-14T09:18:29.024Z,44.10
2019-05-14T09:20:58.353Z,45.40
2019-05-14T09:23:28.609Z,45.60
2019-05-14T09:25:58.784Z,44.90
2019-05-14T09:28:28.664Z,44.40
2019-05-14T09:30:59.567Z,44.20
2019-05-14T09:33:29.657Z,44.70
2019-05-14T09:36:13.545Z,41.40
2019-05-14T09:38:29.745Z,42.40
2019-05-14T09:41:08.125Z,42.80
2019-05-14T09:43:29.291Z,42.60
2019-05-14T09:45:58.856Z,40.80
2019-05-14T09:48:28.607Z,41.90
2019-05-14T09:50:58.616Z,40.50
2019-05-14T09:53:28.815Z,41.30
2019-05-14T09:55:58.344Z,42.50
2019-05-14T09:58:28.294Z,45.90
2019-05-14T10:00:59.022Z,44.90
2019-05-14T10:03:27.968Z,43.30
2019-05-14T10:05:58.961Z,41.40
2019-05-14T10:08:28.608Z,42.00
2019-05-14T10:11:00.286Z,44.90
2019-05-14T10:13:28.324Z,42.80
2019-05-14T10:15:58.885Z,43.50
2019-05-14T10:18:28.500Z,42.90
2019-05-14T10:20:59.065Z,43.40
2019-05-14T10:23:28.576Z,42.40
2019-05-14T10:25:58.218Z,44.90
2019-05-14T10:28:28.847Z,41.80
2019-05-14T10:30:59.910Z,42.10
2019-05-14T10:33:28.891Z,39.80
2019-05-14T10:35:58.843Z,42.00
2019-05-14T10:38:29.548Z,42.20
2019-05-14T10:40:59.061Z,42.70
2019-05-14T10:43:31.047Z,42.60
2019-05-14T10:46:00.085Z,42.50
2019-05-14T10:48:31.958Z,43.90
2019-05-14T10:51:03.641Z,44.40
2019-05-14T10:53:31.508Z,45.50
2019-05-14T10:56:00.435Z,44.60
2019-05-14T10:58:29.304Z,47.00
2019-05-14T11:00:58.858Z,45.10
2019-05-14T11:03:30.185Z,44.50
2019-05-14T11:05:58.921Z,44.20
2019-05-14T11:08:29.611Z,45.40
2019-05-14T11:11:03.661Z,43.90
2019-05-14T11:13:29.674Z,44.00
2019-05-14T11:15:59.633Z,45.60
2019-05-14T11:18:29.325Z,44.70
2019-05-14T11:21:18.057Z,44.90
2019-05-14T11:23:29.929Z,43.10
2019-05-14T11:26:00.841Z,44.70
2019-05-14T11:28:29.825Z,43.40
2019-05-14T11:30:58.779Z,41.20
2019-05-14T11:33:30.680Z,40.10
2019-05-14T11:35:59.554Z,41.80
2019-05-14T11:38:36.884Z,39.40
2019-05-14T11:40:59.086Z,41.20
2019-05-14T11:43:28.624Z,41.50
2019-05-14T11:46:00.548Z,39.70
2019-05-14T11:48:29.617Z,40.70
2019-05-14T11:50:59.455Z,42.60
2019-05-14T11:53:28.814Z,41.20
2019-05-14T11:55:58.670Z,41.60
2019-05-14T11:58:29.428Z,40.20
2019-05-14T12:00:58.588Z,41.70
2019-05-14T12:03:28.626Z,39.60
2019-05-14T12:05:58.579Z,39.00
2019-05-14T12:08:28.822Z,40.90
2019-05-14T12:10:59.283Z,37.10
2019-05-14T12:13:32.152Z,36.10
2019-05-14T12:15:59.196Z,38.10
2019-05-14T12:18:29.144Z,39.30
2019-05-14T12:20:59.466Z,41.00
2019-05-14T12:23:29.808Z,40.20
2019-05-14T12:25:59.089Z,41.20
2019-05-14T12:28:29.143Z,41.10
2019-05-14T12:30:58.501Z,41.20
2019-05-14T12:33:30.637Z,41.50
2019-05-14T12:36:00.526Z,42.20
2019-05-14T12:38:29.680Z,43.90
2019-05-14T12:40:58.878Z,43.30
2019-05-14T12:43:28.457Z,43.60
2019-05-14T12:45:59.314Z,44.20
2019-05-14T12:48:29.769Z,43.90
2019-05-14T12:50:59.573Z,43.90
2019-05-14T12:53:28.966Z,43.80
2019-05-14T12:55:58.040Z,44.90
2019-05-14T12:58:28.535Z,45.20
2019-05-14T13:00:59.479Z,44.10
2019-05-14T13:03:28.551Z,42.50
2019-05-14T13:05:58.582Z,42.80
2019-05-14T13:08:27.875Z,41.50
2019-05-14T13:10:58.688Z,42.20
2019-05-14T13:13:29.047Z,41.60
2019-05-14T13:15:57.807Z,41.60
2019-05-14T13:18:29.035Z,42.70
2019-05-14T13:20:57.341Z,43.30
2019-05-14T13:23:29.004Z,45.00
2019-05-14T13:25:58.725Z,42.80
2019-05-14T13:28:29.063Z,42.40
2019-05-14T13:30:59.656Z,42.50
2019-05-14T13:33:28.951Z,43.50
2019-05-14T13:35:59.370Z,43.10
2019-05-14T13:38:28.619Z,45.40
2019-05-14T13:40:59.464Z,44.00
2019-05-14T13:43:30.776Z,45.80
2019-05-14T13:45:59.947Z,43.70
2019-05-14T13:48:29.809Z,45.50
2019-05-14T13:51:02.006Z,46.00
2019-05-14T13:53:30.895Z,45.30
2019-05-14T13:55:59.800Z,44.80
2019-05-14T13:58:31.808Z,45.50
2019-05-14T14:01:00.606Z,46.00
2019-05-14T14:03:29.670Z,45.90
2019-05-14T14:05:59.350Z,45.90
2019-05-14T14:08:29.343Z,46.10
2019-05-14T14:11:02.621Z,44.50
2019-05-14T14:13:31.486Z,44.40
2019-05-14T14:15:59.747Z,46.50
2019-05-14T14:18:29.357Z,45.50
2019-05-14T14:20:58.608Z,45.00
2019-05-14T14:23:31.016Z,44.30
2019-05-14T14:25:59.599Z,44.20
2019-05-14T14:28:28.642Z,44.20
2019-05-14T14:30:57.493Z,43.90
2019-05-14T14:33:28.734Z,44.30
2019-05-14T14:35:58.562Z,45.20
2019-05-14T14:38:29.372Z,44.50
2019-05-14T14:40:58.441Z,43.90
2019-05-14T14:43:29.575Z,43.00
2019-05-14T14:45:59.363Z,43.10
2019-05-14T14:48:30.251Z,43.70
2019-05-14T14:50:58.994Z,43.60
2019-05-14T14:53:42.883Z,43.10
2019-05-14T14:56:00.426Z,44.10
2019-05-14T14:58:29.293Z,44.50
2019-05-14T15:00:59.729Z,42.80
2019-05-14T15:03:29.518Z,43.40
2019-05-14T15:05:58.919Z,45.20
2019-05-14T15:08:29.220Z,45.40
2019-05-14T15:10:59.314Z,46.30
2019-05-14T15:13:28.521Z,46.60
2019-05-14T15:16:00.842Z,47.30
2019-05-14T15:18:30.995Z,47.90
2019-05-14T15:20:59.924Z,48.60
2019-05-14T15:23:28.839Z,48.70
2019-05-14T15:25:58.926Z,48.50
2019-05-14T15:28:28.101Z,49.20
2019-05-14T15:30:59.302Z,48.80
2019-05-14T15:33:29.407Z,47.30
2019-05-14T15:35:58.293Z,47.20
2019-05-14T15:38:30.294Z,48.30
2019-05-14T15:40:59.599Z,50.20
2019-05-14T15:43:28.644Z,51.20
2019-05-14T15:45:58.936Z,52.00
2019-05-14T15:48:27.900Z,52.10
2019-05-14T15:50:59.729Z,51.40
2019-05-14T15:53:29.073Z,52.10
2019-05-14T15:55:58.182Z,52.90
2019-05-14T15:58:29.950Z,54.20
2019-05-14T16:01:00.811Z,52.80
2019-05-14T16:03:28.364Z,53.70
2019-05-14T16:05:59.881Z,51.60
2019-05-14T16:08:29.632Z,54.20
2019-05-14T16:11:00.331Z,55.60
2019-05-14T16:13:29.133Z,54.70
2019-05-14T16:15:57.981Z,53.60
2019-05-14T16:18:28.612Z,54.20
2019-05-14T16:20:59.381Z,52.50
2019-05-14T16:23:32.182Z,54.90
2019-05-14T16:26:01.120Z,54.10
2019-05-14T16:28:30.069Z,52.20
2019-05-14T16:30:59.400Z,51.40
2019-05-14T16:33:29.416Z,51.90
2019-05-14T16:35:58.590Z,51.90
2019-05-14T16:38:28.561Z,51.60
2019-05-14T16:40:59.586Z,52.50
2019-05-14T16:43:32.052Z,52.40
2019-05-14T16:45:59.832Z,53.00
2019-05-14T16:48:29.092Z,51.80
2019-05-14T16:50:58.440Z,52.80
2019-05-14T16:53:28.746Z,54.00
2019-05-14T16:55:57.905Z,51.20
2019-05-14T16:58:29.026Z,52.40
2019-05-14T17:00:58.841Z,51.90
2019-05-14T17:03:29.797Z,51.10
2019-05-14T17:05:59.331Z,51.50
2019-05-14T17:08:28.570Z,53.20
2019-05-14T17:10:59.071Z,51.70
2019-05-14T17:13:28.617Z,52.80
2019-05-14T17:15:58.917Z,52.60
2019-05-14T17:18:28.713Z,53.60
2019-05-14T17:20:59.444Z,54.40
2019-05-14T17:23:28.639Z,55.30
2019-05-14T17:25:58.040Z,55.60
2019-05-14T17:28:28.667Z,55.30
2019-05-14T17:30:57.818Z,55.20
2019-05-14T17:33:29.030Z,54.40
2019-05-14T17:35:58.623Z,54.00
2019-05-14T17:38:29.162Z,53.90
2019-05-14T17:40:59.686Z,54.70
2019-05-14T17:43:29.639Z,56.40
2019-05-14T17:45:58.849Z,56.90
2019-05-14T17:48:28.423Z,59.60
2019-05-14T17:50:59.023Z,58.20
2019-05-14T17:53:31.081Z,59.90
2019-05-14T17:56:00.229Z,62.50
2019-05-14T17:58:29.181Z,62.90
2019-05-14T18:00:58.287Z,63.50
2019-05-14T18:03:29.027Z,62.60
2019-05-14T18:05:58.293Z,61.60
2019-05-14T18:08:29.962Z,62.70
2019-05-14T18:10:59.252Z,62.90
2019-05-14T18:13:28.526Z,62.70
2019-05-14T18:15:58.112Z,61.80
2019-05-14T18:18:29.109Z,57.40
2019-05-14T18:20:58.390Z,57.20
2019-05-14T18:23:28.942Z,56.90
2019-05-14T18:26:07.848Z,55.60
2019-05-14T18:28:29.381Z,57.00
2019-05-14T18:30:58.904Z,55.40
2019-05-14T18:33:31.271Z,54.80
2019-05-14T18:36:00.278Z,56.50
2019-05-14T18:38:29.590Z,56.00
2019-05-14T18:40:58.900Z,55.20
2019-05-14T18:43:28.965Z,54.90
2019-05-14T18:45:58.699Z,52.80
2019-05-14T18:48:28.979Z,53.40
2019-05-14T18:50:59.317Z,54.40
2019-05-14T18:53:28.791Z,54.70
2019-05-14T18:55:59.711Z,55.80
2019-05-14T18:58:29.385Z,56.10
2019-05-14T19:00:58.781Z,59.20
2019-05-14T19:03:28.570Z,64.10
2019-05-14T19:05:58.691Z,65.30
2019-05-14T19:08:28.895Z,65.80
2019-05-14T19:10:59.344Z,65.60
2019-05-14T19:13:28.652Z,66.50
2019-05-14T19:15:59.183Z,69.10
2019-05-14T19:18:28.791Z,68.30
2019-05-14T19:20:59.255Z,67.20
2019-05-14T19:23:28.971Z,65.40
2019-05-14T19:25:59.088Z,66.30
2019-05-14T19:28:28.503Z,66.60
2019-05-14T19:30:59.635Z,64.10
2019-05-14T19:33:28.763Z,61.70
2019-05-14T19:35:58.168Z,62.30
2019-05-14T19:38:27.054Z,63.50
2019-05-14T19:40:56.019Z,63.20
2019-05-14T19:43:25.022Z,63.30
2019-05-14T19:45:53.996Z,64.10
2019-05-14T19:48:22.947Z,64.20
2019-05-14T19:50:51.939Z,66.30
2019-05-14T19:53:20.938Z,66.50
2019-05-14T19:55:49.976Z,66.50
2019-05-14T19:58:20.065Z,65.60
2019-05-14T20:00:49.638Z,65.40
2019-05-14T20:03:18.963Z,67.20
2019-05-14T20:05:47.907Z,66.40
2019-05-14T20:08:18.910Z,67.00
2019-05-14T20:10:48.983Z,67.00
2019-05-14T20:13:19.411Z,66.90
2019-05-14T20:15:48.925Z,66.20
2019-05-14T20:18:17.918Z,61.30
2019-05-14T20:20:49.095Z,62.30
2019-05-14T20:23:18.539Z,63.40
2019-05-14T20:25:48.162Z,60.60
2019-05-14T20:28:18.945Z,59.90
2019-05-14T20:30:49.329Z,59.50
2019-05-14T20:33:19.091Z,59.60
2019-05-14T20:35:48.688Z,59.20
2019-05-14T20:38:18.483Z,57.30
2019-05-14T20:40:48.746Z,57.80
2019-05-14T20:43:18.640Z,57.30
2019-05-14T20:45:48.890Z,57.50
2019-05-14T20:48:18.826Z,57.90
2019-05-14T20:50:48.122Z,57.90
2019-05-14T20:53:18.566Z,58.00
2019-05-14T20:55:47.796Z,56.60
2019-05-14T20:58:19.623Z,58.00
2019-05-14T21:00:48.467Z,59.00
2019-05-14T21:03:18.677Z,61.80
2019-05-14T21:05:49.150Z,61.20
2019-05-14T21:08:21.295Z,59.70
2019-05-14T21:10:50.148Z,59.10
2019-05-14T21:13:19.383Z,61.10
2019-05-14T21:15:48.439Z,57.80
2019-05-14T21:18:18.903Z,58.80
2019-05-14T21:20:48.849Z,59.50
2019-05-14T21:23:18.395Z,58.90
2019-05-14T21:25:48.342Z,58.50
2019-05-14T21:28:19.306Z,59.50
2019-05-14T21:30:48.685Z,58.70
2019-05-14T21:33:17.819Z,60.20
2019-05-14T21:35:48.462Z,59.80
2019-05-14T21:38:19.198Z,61.70
2019-05-14T21:40:49.978Z,62.80
2019-05-14T21:43:18.662Z,63.50
2019-05-14T21:45:48.971Z,63.10
2019-05-14T21:48:20.015Z,61.90
2019-05-14T21:50:48.721Z,61.90
2019-05-14T21:53:19.133Z,62.00
2019-05-14T21:55:48.187Z,64.10
2019-05-14T21:58:19.486Z,64.90
2019-05-14T22:00:49.636Z,65.00
2019-05-14T22:03:20.867Z,63.70
2019-05-14T22:05:51.526Z,64.60
2019-05-14T22:08:20.031Z,64.70
2019-05-14T22:10:48.962Z,65.20
2019-05-14T22:13:18.199Z,65.10
2019-05-14T22:15:49.249Z,66.30
2019-05-14T22:18:20.587Z,66.50
2019-05-14T22:20:48.374Z,66.70
2019-05-14T22:23:17.865Z,68.80
2019-05-14T22:25:48.691Z,68.50
2019-05-14T22:28:18.992Z,70.30
2019-05-14T22:30:47.939Z,68.70
2019-05-14T22:33:18.934Z,70.60
2019-05-14T22:35:48.556Z,69.30
2019-05-14T22:38:19.967Z,69.50
2019-05-14T22:40:48.322Z,71.70
2019-05-14T22:43:18.273Z,71.20
2019-05-14T22:45:48.105Z,71.00
2019-05-14T22:48:18.619Z,70.40
2019-05-14T22:50:48.538Z,71.30
2019-05-14T22:53:17.755Z,72.60
2019-05-14T22:55:48.974Z,73.20
2019-05-14T22:58:25.212Z,73.70
2019-05-14T23:01:01.732Z,75.70
2019-05-14T23:03:18.753Z,75.20
2019-05-14T23:05:48.919Z,75.10
2019-05-14T23:08:22.737Z,77.40
2019-05-14T23:10:51.666Z,77.60
2019-05-14T23:13:20.542Z,77.10
2019-05-14T23:15:49.388Z,76.70
2019-05-14T23:18:18.287Z,78.20
2019-05-14T23:20:49.208Z,78.60
2019-05-14T23:23:18.481Z,79.10
2019-05-14T23:25:47.500Z,78.60
2019-05-14T23:28:16.326Z,78.30
2019-05-14T23:30:48.014Z,80.10
2019-05-14T23:33:16.006Z,79.70
2019-05-14T23:35:44.854Z,78.60
2019-05-14T23:38:14.060Z,78.50
2019-05-14T23:40:42.905Z,78.70
2019-05-14T23:43:11.828Z,76.90
2019-05-14T23:45:40.734Z,77.50
2019-05-14T23:48:09.748Z,77.50
2019-05-14T23:50:38.799Z,78.70
2019-05-14T23:53:09.207Z,78.80
2019-05-14T23:55:38.686Z,79.40
2019-05-14T23:58:08.378Z,78.80
